Terminal Aerodrome Forecast
Issued by NWS

Home | Current Version | Previous Version | Text Only | Print | Product List | Glossary On
Versions: 1 2 3 4 5 6 7 8 9 10 11 12 13 14 15 16
000
FTUS45 KLKN 170520
TAFWMC
TAF
KWMC 170520Z 1706/1806 12006KT P6SM SCT020 SCT200
      TEMPO 1706/1710 BKN015=

USA.gov is the U.S. government's official web portal to all federal, state and local government web resources and services.